Time;durP1;ratioP1;P1;durP2;ratioP2;P2;SDS_P1;SDS_P2;PMS_P1;PMS_P2;Temp;Humidity;BMP_temperature;BMP_pressure;BME280_temperature;BME280_humidity;BME280_pressure;Samples;Min_cycle;Max_cycle;Signal;HPM_P1;HPM_P2
2020/12/20 00:00:12;;;;;;;12.65;6.13;;;9.20;85.90;;;;;;4966036;28;20031;-51
2020/12/20 00:02:37;;;;;;;15.10;6.53;;;9.20;85.90;;;;;;4963694;28;20023;-52
2020/12/20 00:05:07;;;;;;;12.10;6.72;;;9.30;86.00;;;;;;4957559;28;20035;-51
2020/12/20 00:07:33;;;;;;;11.25;5.97;;;9.20;86.10;;;;;;4967889;28;20030;-51
2020/12/20 00:09:59;;;;;;;10.23;5.72;;;9.20;86.00;;;;;;4964890;28;20031;-52
2020/12/20 00:12:25;;;;;;;12.18;6.18;;;9.20;86.00;;;;;;4966962;28;20352;-52
2020/12/20 00:14:51;;;;;;;13.32;7.15;;;9.20;85.90;;;;;;4963183;28;20437;-52
2020/12/20 00:17:17;;;;;;;14.88;7.15;;;9.30;85.90;;;;;;4970966;28;20039;-52
2020/12/20 00:19:43;;;;;;;11.45;6.13;;;9.20;85.80;;;;;;4963604;28;20023;-52
2020/12/20 00:22:11;;;;;;;16.98;8.25;;;9.20;85.90;;;;;;4963827;28;20117;-51
2020/12/20 00:24:37;;;;;;;14.43;7.00;;;9.20;86.10;;;;;;4969983;28;20033;-51
2020/12/20 00:27:04;;;;;;;15.07;7.38;;;9.20;86.70;;;;;;4970309;28;20057;-52
2020/12/20 00:29:32;;;;;;;14.63;7.22;;;9.20;86.10;;;;;;4958711;28;20034;-51
2020/12/20 00:32:03;;;;;;;14.70;7.38;;;9.30;86.30;;;;;;4956430;28;20031;-51
2020/12/20 00:34:29;;;;;;;15.65;6.97;;;9.20;85.90;;;;;;4970582;28;20125;-51
2020/12/20 00:36:54;;;;;;;14.95;6.45;;;9.30;86.20;;;;;;4973142;28;20440;-51
2020/12/20 00:39:21;;;;;;;12.35;5.97;;;9.30;86.30;;;;;;4967947;28;20071;-51
2020/12/20 00:41:51;;;;;;;12.27;5.47;;;9.30;86.10;;;;;;4970248;28;20070;-51
2020/12/20 00:44:18;;;;;;;14.68;7.65;;;9.20;85.90;;;;;;4960049;28;20027;-52
2020/12/20 00:46:43;;;;;;;13.18;7.25;;;9.20;86.10;;;;;;4962030;28;20027;-52
2020/12/20 00:49:09;;;;;;;12.70;6.82;;;9.30;85.90;;;;;;4966760;28;20035;-51
2020/12/20 00:51:35;;;;;;;14.20;6.75;;;9.20;86.00;;;;;;4962064;28;20051;-52
2020/12/20 00:54:01;;;;;;;16.70;6.75;;;9.30;86.00;;;;;;4967600;28;20401;-51
2020/12/20 00:56:26;;;;;;;17.70;7.28;;;9.30;86.20;;;;;;4964591;28;20066;-51
2020/12/20 00:58:52;;;;;;;19.90;7.97;;;9.20;85.80;;;;;;4959659;28;20023;-51
2020/12/20 01:01:18;;;;;;;18.75;8.15;;;9.20;85.90;;;;;;4969706;28;20042;-51
2020/12/20 01:03:44;;;;;;;16.73;7.35;;;9.20;85.70;;;;;;4973923;28;20459;-51
2020/12/20 01:06:17;;;;;;;13.68;6.55;;;9.20;86.00;;;;;;4966398;28;20484;-52
2020/12/20 01:08:42;;;;;;;18.77;8.23;;;9.20;86.00;;;;;;4970703;28;20361;-52
2020/12/20 01:11:08;;;;;;;14.65;7.00;;;9.30;86.30;;;;;;4974387;28;20026;-52
2020/12/20 01:13:34;;;;;;;12.88;6.43;;;9.30;85.90;;;;;;4966344;28;20078;-51
2020/12/20 01:15:59;;;;;;;15.30;6.50;;;9.20;85.50;;;;;;4963330;28;20067;-51
2020/12/20 01:18:26;;;;;;;15.00;7.43;;;9.20;85.80;;;;;;4962632;28;20114;-51
2020/12/20 01:20:51;;;;;;;10.57;5.90;;;9.30;86.00;;;;;;4972196;28;20042;-51
2020/12/20 01:23:17;;;;;;;17.83;8.10;;;9.20;86.00;;;;;;4970608;28;20073;-51
2020/12/20 01:25:42;;;;;;;12.98;6.72;;;9.30;86.00;;;;;;4967763;28;20023;-51
2020/12/20 01:28:08;;;;;;;11.15;5.78;;;9.20;86.00;;;;;;4973093;28;20034;-51
2020/12/20 01:30:33;;;;;;;12.93;5.82;;;9.20;85.90;;;;;;4976648;28;20043;-52
2020/12/20 01:32:59;;;;;;;11.15;6.03;;;9.20;86.40;;;;;;4968241;28;20023;-51
2020/12/20 01:35:25;;;;;;;15.00;6.72;;;9.20;85.70;;;;;;4970609;28;20460;-52
2020/12/20 01:37:50;;;;;;;13.48;5.97;;;9.20;85.90;;;;;;4966808;28;20114;-51
2020/12/20 01:40:16;;;;;;;12.10;6.30;;;9.30;85.90;;;;;;4968288;28;20346;-51
2020/12/20 01:42:42;;;;;;;10.77;5.65;;;9.20;85.80;;;;;;4959011;28;20030;-52
2020/12/20 01:45:07;;;;;;;10.30;5.32;;;9.20;86.00;;;;;;4965778;28;20105;-51
2020/12/20 01:47:34;;;;;;;18.55;6.97;;;9.20;85.90;;;;;;4970269;28;20085;-51
2020/12/20 01:50:01;;;;;;;16.80;7.38;;;9.20;85.80;;;;;;4963223;28;20038;-51
2020/12/20 01:52:27;;;;;;;16.40;6.93;;;9.20;85.90;;;;;;4960769;28;20472;-52
2020/12/20 01:54:56;;;;;;;15.82;7.28;;;9.20;85.80;;;;;;4966744;28;20496;-52
2020/12/20 01:57:22;;;;;;;15.15;7.45;;;9.20;85.50;;;;;;4970433;28;20043;-52
2020/12/20 01:59:48;;;;;;;13.52;6.03;;;9.20;85.70;;;;;;4968467;28;20031;-51
2020/12/20 02:02:14;;;;;;;17.13;7.18;;;9.20;85.90;;;;;;4969148;28;20556;-51
2020/12/20 02:04:41;;;;;;;17.98;7.28;;;9.20;85.40;;;;;;4962665;28;20023;-51
2020/12/20 02:07:07;;;;;;;16.98;8.45;;;9.20;85.60;;;;;;4967200;28;20119;-52
2020/12/20 02:09:33;;;;;;;15.68;6.95;;;9.20;85.70;;;;;;4967162;28;20106;-51
2020/12/20 02:12:06;;;;;;;14.00;8.02;;;9.20;85.70;;;;;;4964846;28;20417;-52
2020/12/20 02:14:32;;;;;;;18.55;7.47;;;9.20;85.90;;;;;;4958612;28;20579;-51
2020/12/20 02:16:58;;;;;;;15.15;6.28;;;9.20;85.80;;;;;;4969214;28;20042;-52
2020/12/20 02:19:24;;;;;;;12.98;6.43;;;9.20;85.70;;;;;;4960213;28;20054;-52
2020/12/20 02:21:50;;;;;;;15.05;6.15;;;9.20;85.80;;;;;;4975358;28;20031;-51
2020/12/20 02:24:17;;;;;;;13.40;6.93;;;9.20;85.60;;;;;;4963954;28;20053;-51
2020/12/20 02:26:43;;;;;;;16.15;7.25;;;9.20;85.60;;;;;;4976809;28;20023;-51
2020/12/20 02:29:08;;;;;;;12.75;6.63;;;9.20;85.60;;;;;;4974484;28;20030;-52
2020/12/20 02:31:34;;;;;;;14.02;6.95;;;9.20;85.70;;;;;;4969386;28;20023;-52
2020/12/20 02:34:01;;;;;;;11.25;6.30;;;9.20;85.60;;;;;;4963496;28;20046;-52
2020/12/20 02:36:27;;;;;;;13.85;6.20;;;9.20;85.80;;;;;;4976498;28;20093;-51
2020/12/20 02:38:53;;;;;;;17.35;6.60;;;9.20;85.60;;;;;;4967046;28;20031;-51
2020/12/20 02:41:19;;;;;;;12.52;6.20;;;9.20;86.40;;;;;;4960903;28;20031;-52
2020/12/20 02:43:48;;;;;;;19.42;7.85;;;9.20;85.80;;;;;;4958281;28;20054;-51
2020/12/20 02:46:16;;;;;;;13.35;5.75;;;9.20;85.90;;;;;;4970669;28;20353;-51
2020/12/20 02:48:42;;;;;;;11.43;5.22;;;9.20;85.50;;;;;;4959357;28;20026;-52
2020/12/20 02:51:08;;;;;;;10.15;5.28;;;9.20;85.90;;;;;;4966648;28;20035;-51
2020/12/20 02:53:33;;;;;;;16.90;7.07;;;9.20;85.50;;;;;;4972184;28;20031;-51
2020/12/20 02:55:59;;;;;;;11.05;5.88;;;9.20;85.70;;;;;;4963819;28;20035;-52
2020/12/20 02:58:24;;;;;;;12.98;6.30;;;9.20;85.70;;;;;;4961778;28;20422;-51
2020/12/20 03:00:50;;;;;;;11.93;6.32;;;9.20;85.60;;;;;;4965780;28;20019;-51
2020/12/20 03:03:16;;;;;;;11.18;5.75;;;9.20;85.60;;;;;;4972216;28;20047;-52
2020/12/20 03:05:41;;;;;;;13.25;5.90;;;9.20;85.70;;;;;;4964858;28;20081;-52
2020/12/20 03:08:07;;;;;;;15.63;6.88;;;9.20;85.50;;;;;;4963705;28;20110;-51
2020/12/20 03:10:32;;;;;;;11.90;6.43;;;9.20;85.70;;;;;;4961973;28;20022;-51
2020/12/20 03:12:59;;;;;;;13.77;7.00;;;9.20;85.40;;;;;;4971433;28;20038;-52
2020/12/20 03:15:25;;;;;;;11.55;6.00;;;9.20;85.90;;;;;;4964461;28;20048;-51
2020/12/20 03:17:51;;;;;;;13.85;6.10;;;9.20;85.70;;;;;;4975521;28;20150;-51
2020/12/20 03:20:16;;;;;;;15.38;7.13;;;9.20;85.80;;;;;;4960910;28;20038;-51
2020/12/20 03:22:42;;;;;;;12.73;6.63;;;9.20;85.70;;;;;;4963221;28;20113;-51
2020/12/20 03:25:08;;;;;;;13.10;6.68;;;9.20;85.70;;;;;;4966246;28;20042;-52
2020/12/20 03:27:33;;;;;;;13.10;5.72;;;9.20;85.80;;;;;;4967408;28;20031;-51
2020/12/20 03:29:59;;;;;;;9.95;5.35;;;9.20;85.60;;;;;;4943016;28;20071;-51
2020/12/20 03:32:25;;;;;;;9.60;5.28;;;9.20;85.50;;;;;;4969550;28;20023;-51
2020/12/20 03:34:50;;;;;;;11.15;5.32;;;9.20;85.60;;;;;;4967598;28;20038;-52
2020/12/20 03:37:16;;;;;;;12.90;6.53;;;9.20;85.60;;;;;;4967058;28;20469;-52
2020/12/20 03:39:42;;;;;;;13.02;6.28;;;9.20;85.50;;;;;;4970947;28;20038;-52
2020/12/20 03:42:08;;;;;;;10.45;5.85;;;9.20;85.40;;;;;;4966347;28;20023;-52
2020/12/20 03:44:33;;;;;;;13.10;6.60;;;9.20;85.80;;;;;;4963213;28;20034;-51
2020/12/20 03:46:59;;;;;;;10.38;6.38;;;9.20;85.40;;;;;;4963451;28;20049;-51
2020/12/20 03:49:24;;;;;;;15.48;7.18;;;9.20;85.60;;;;;;4971911;28;20511;-51
2020/12/20 03:51:50;;;;;;;15.20;7.40;;;9.20;85.50;;;;;;4964661;28;20030;-51
2020/12/20 03:54:16;;;;;;;15.85;6.78;;;9.20;85.40;;;;;;4962671;28;20027;-51
2020/12/20 03:56:41;;;;;;;15.52;6.85;;;9.20;85.60;;;;;;4961675;28;20484;-52
2020/12/20 03:59:07;;;;;;;17.42;7.28;;;9.20;85.40;;;;;;4967939;28;20062;-51
2020/12/20 04:01:32;;;;;;;12.23;6.70;;;9.20;85.20;;;;;;4973128;28;20360;-52
2020/12/20 04:03:58;;;;;;;13.63;6.97;;;9.20;85.40;;;;;;4962536;28;20034;-51
2020/12/20 04:06:24;;;;;;;13.05;6.93;;;9.20;85.40;;;;;;4963708;28;20111;-51
2020/12/20 04:08:49;;;;;;;10.88;6.50;;;9.20;85.40;;;;;;4962888;28;20465;-51
2020/12/20 04:11:15;;;;;;;13.73;6.95;;;9.20;85.50;;;;;;4966792;28;20089;-51
2020/12/20 04:13:40;;;;;;;16.27;6.20;;;9.20;85.40;;;;;;4967172;28;20378;-51
2020/12/20 04:16:08;;;;;;;13.48;7.25;;;9.20;85.50;;;;;;4959903;28;20461;-51
2020/12/20 04:18:34;;;;;;;16.00;6.85;;;9.20;85.40;;;;;;4962174;28;20039;-51
2020/12/20 04:21:00;;;;;;;14.63;7.15;;;9.20;85.80;;;;;;4970764;28;20027;-51
2020/12/20 04:23:26;;;;;;;13.20;6.53;;;9.20;85.30;;;;;;4959690;28;20135;-51
2020/12/20 04:25:51;;;;;;;17.13;6.97;;;9.20;85.50;;;;;;4956351;28;20058;-51
2020/12/20 04:28:17;;;;;;;14.32;7.43;;;9.20;85.70;;;;;;4969781;28;20037;-51
2020/12/20 04:30:43;;;;;;;13.02;6.82;;;9.20;85.60;;;;;;4967573;28;20483;-52
2020/12/20 04:33:08;;;;;;;12.98;6.72;;;9.20;85.60;;;;;;4962141;28;20034;-52
2020/12/20 04:35:34;;;;;;;13.27;7.40;;;9.20;85.50;;;;;;4972604;28;20122;-51
2020/12/20 04:38:01;;;;;;;16.38;7.35;;;9.20;85.40;;;;;;4965248;28;20445;-51
2020/12/20 04:40:27;;;;;;;16.73;6.55;;;9.20;85.40;;;;;;4964581;28;20371;-52
2020/12/20 04:43:13;;;;;;;12.05;6.85;;;9.20;85.60;;;;;;4974209;28;20496;-51
2020/12/20 04:45:39;;;;;;;15.90;6.78;;;9.20;85.20;;;;;;4970371;28;20457;-51
2020/12/20 04:48:05;;;;;;;20.80;7.22;;;9.20;85.80;;;;;;4963571;28;20114;-51
2020/12/20 04:50:32;;;;;;;10.82;6.30;;;9.20;85.70;;;;;;4975410;28;20356;-51
2020/12/20 04:53:00;;;;;;;14.70;7.50;;;9.20;85.60;;;;;;4971072;28;20039;-51
2020/12/20 04:55:27;;;;;;;14.52;6.85;;;9.20;85.50;;;;;;4971389;28;20027;-51
2020/12/20 04:57:54;;;;;;;13.02;7.18;;;9.20;85.60;;;;;;4974079;28;20485;-51
2020/12/20 05:00:20;;;;;;;16.58;8.15;;;9.20;85.40;;;;;;4967339;28;20027;-51
2020/12/20 05:02:46;;;;;;;16.15;8.00;;;9.20;85.40;;;;;;4962033;28;20631;-51
2020/12/20 05:05:12;;;;;;;17.92;8.05;;;9.20;85.40;;;;;;4968854;28;20053;-51
2020/12/20 05:07:38;;;;;;;18.20;8.77;;;9.20;85.40;;;;;;4967130;28;20030;-51
2020/12/20 05:10:05;;;;;;;15.38;7.20;;;9.20;85.20;;;;;;4974167;28;20358;-52
2020/12/20 05:12:35;;;;;;;16.70;7.82;;;9.20;85.60;;;;;;4970845;28;20035;-52
2020/12/20 05:15:17;;;;;;;14.57;7.93;;;9.20;85.40;;;;;;4963115;28;20380;-52
2020/12/20 05:17:43;;;;;;;15.13;7.43;;;9.20;85.60;;;;;;4965388;28;20038;-53
2020/12/20 05:20:12;;;;;;;17.92;8.20;;;9.10;85.30;;;;;;4973763;28;20031;-52
2020/12/20 05:22:38;;;;;;;15.88;7.70;;;9.20;85.20;;;;;;4970462;28;20027;-52
2020/12/20 05:25:17;;;;;;;12.65;7.18;;;9.20;85.60;;;;;;4958836;28;20031;-52
2020/12/20 05:27:42;;;;;;;14.05;7.53;;;9.20;85.40;;;;;;4959231;28;20027;-52
2020/12/20 05:30:15;;;;;;;15.95;7.82;;;9.20;85.50;;;;;;4968240;28;20027;-53
2020/12/20 05:32:43;;;;;;;16.35;7.05;;;9.20;85.30;;;;;;4972361;28;20125;-52
2020/12/20 05:35:15;;;;;;;15.18;6.55;;;9.20;85.30;;;;;;4959290;28;20417;-52
2020/12/20 05:37:45;;;;;;;17.85;6.88;;;9.20;85.40;;;;;;4972205;28;20042;-52
2020/12/20 05:40:24;;;;;;;11.30;6.00;;;9.20;85.40;;;;;;4963446;28;20087;-52
2020/12/20 05:43:07;;;;;;;15.52;7.20;;;9.20;85.00;;;;;;4959547;28;20034;-53
2020/12/20 05:45:35;;;;;;;14.38;7.60;;;9.20;85.40;;;;;;4968575;28;20354;-52
2020/12/20 05:48:17;;;;;;;15.82;7.30;;;9.20;85.40;;;;;;4966032;28;20037;-52
2020/12/20 05:50:50;;;;;;;11.65;6.40;;;9.20;85.20;;;;;;4964777;28;20018;-52
2020/12/20 05:53:25;;;;;;;14.13;7.15;;;9.20;85.20;;;;;;4970315;28;20472;-52
2020/12/20 05:55:50;;;;;;;13.48;6.60;;;9.20;85.30;;;;;;4972567;28;20134;-53
2020/12/20 05:58:16;;;;;;;13.77;6.72;;;9.20;85.20;;;;;;4976068;28;20077;-52
2020/12/20 06:00:44;;;;;;;13.18;6.57;;;9.20;85.40;;;;;;4970178;28;20027;-52
2020/12/20 06:03:10;;;;;;;14.57;6.63;;;9.20;85.30;;;;;;4969526;28;20039;-52
2020/12/20 06:05:39;;;;;;;12.40;6.40;;;9.20;85.20;;;;;;4970566;28;20046;-52
2020/12/20 06:08:18;;;;;;;15.50;7.20;;;9.20;85.30;;;;;;4976234;28;20034;-52
2020/12/20 06:10:46;;;;;;;14.57;6.95;;;9.20;85.10;;;;;;4963319;28;20022;-52
2020/12/20 06:13:14;;;;;;;13.65;7.35;;;9.20;85.20;;;;;;4965088;28;20031;-52
2020/12/20 06:15:41;;;;;;;11.50;6.07;;;9.20;85.10;;;;;;4968382;28;20499;-52
2020/12/20 06:18:09;;;;;;;15.40;6.68;;;9.20;85.30;;;;;;4969177;28;20050;-52
2020/12/20 06:20:54;;;;;;;14.48;7.60;;;9.20;85.00;;;;;;4962536;28;20027;-53
2020/12/20 06:23:26;;;;;;;10.43;5.88;;;9.20;85.10;;;;;;4972629;28;20058;-52
2020/12/20 06:25:54;;;;;;;15.45;6.90;;;9.20;85.00;;;;;;4966647;28;20589;-52
2020/12/20 06:28:42;;;;;;;10.18;6.25;;;9.20;84.90;;;;;;4975305;28;20030;-52
2020/12/20 06:31:09;;;;;;;10.65;6.05;;;9.20;85.20;;;;;;4969935;28;20029;-52
2020/12/20 06:33:35;;;;;;;12.70;5.88;;;9.20;84.90;;;;;;4971649;28;20402;-52
2020/12/20 06:36:09;;;;;;;11.20;6.47;;;9.20;85.10;;;;;;4963279;28;20039;-53
2020/12/20 06:38:35;;;;;;;11.35;6.15;;;9.20;85.20;;;;;;4957634;28;20039;-52
2020/12/20 06:41:00;;;;;;;11.02;6.47;;;9.20;85.00;;;;;;4974038;28;20027;-52
2020/12/20 06:43:43;;;;;;;13.77;6.82;;;9.20;85.20;;;;;;4971193;28;20039;-52
2020/12/20 06:46:09;;;;;;;12.50;6.50;;;9.20;85.20;;;;;;4972719;28;20035;-52
2020/12/20 06:48:37;;;;;;;8.45;5.00;;;9.20;85.20;;;;;;4961975;28;20039;-52
2020/12/20 06:51:07;;;;;;;10.43;5.93;;;9.20;85.10;;;;;;4965708;28;20368;-52
2020/12/20 06:53:45;;;;;;;10.73;6.10;;;9.20;85.00;;;;;;4976548;28;20049;-52
2020/12/20 06:56:19;;;;;;;11.52;5.80;;;9.20;85.10;;;;;;4962091;28;20109;-52
2020/12/20 06:58:45;;;;;;;13.95;5.95;;;9.20;85.10;;;;;;4964950;28;20038;-53
2020/12/20 07:01:38;;;;;;;10.00;5.78;;;9.20;85.00;;;;;;4967868;28;20090;-53
2020/12/20 07:04:14;;;;;;;10.70;5.88;;;9.20;85.30;;;;;;4962767;28;20357;-52
2020/12/20 07:06:40;;;;;;;13.20;6.03;;;9.20;85.10;;;;;;4969230;28;20114;-52
2020/12/20 07:09:09;;;;;;;17.27;5.93;;;9.20;85.20;;;;;;4959137;28;20422;-52
2020/12/20 07:11:44;;;;;;;13.00;6.13;;;9.20;85.30;;;;;;4963824;28;20443;-52
2020/12/20 07:14:17;;;;;;;11.52;5.40;;;9.20;85.00;;;;;;4964943;28;20027;-52
2020/12/20 07:16:43;;;;;;;9.55;5.30;;;9.20;86.00;;;;;;4965391;28;20031;-52
2020/12/20 07:19:11;;;;;;;9.63;5.25;;;9.20;85.20;;;;;;4964043;28;20357;-52
2020/12/20 07:21:46;;;;;;;11.98;6.80;;;9.20;85.10;;;;;;4961923;28;20089;-52
2020/12/20 07:24:19;;;;;;;11.68;6.53;;;9.20;85.00;;;;;;4967715;28;20089;-52
2020/12/20 07:26:46;;;;;;;8.88;4.97;;;9.20;84.90;;;;;;4962206;28;20557;-53
2020/12/20 07:29:13;;;;;;;10.48;5.93;;;9.20;85.40;;;;;;4960254;28;20043;-52
2020/12/20 07:31:39;;;;;;;10.48;5.25;;;9.20;85.00;;;;;;4967510;28;20058;-53
2020/12/20 07:34:06;;;;;;;12.38;6.45;;;9.20;85.00;;;;;;4960398;28;20424;-53
2020/12/20 07:36:32;;;;;;;11.68;6.25;;;9.20;85.20;;;;;;4959712;28;20035;-53
2020/12/20 07:38:58;;;;;;;11.10;5.53;;;9.20;85.00;;;;;;4965315;28;20023;-52
2020/12/20 07:41:24;;;;;;;11.70;5.60;;;9.20;85.90;;;;;;4974253;28;20030;-52
2020/12/20 07:43:51;;;;;;;11.60;5.68;;;9.30;85.10;;;;;;4970091;28;20074;-52
2020/12/20 07:46:18;;;;;;;9.63;5.40;;;9.30;85.30;;;;;;4963797;28;20035;-52
2020/12/20 07:48:44;;;;;;;13.50;6.50;;;9.30;85.10;;;;;;4964979;28;20480;-52
2020/12/20 07:51:22;;;;;;;13.40;6.47;;;9.20;85.20;;;;;;4963708;28;20035;-52
2020/12/20 07:53:58;;;;;;;10.48;5.97;;;9.30;85.20;;;;;;4963217;28;20027;-52
2020/12/20 07:56:40;;;;;;;8.80;5.53;;;9.30;84.90;;;;;;4960468;28;20052;-52
2020/12/20 07:59:16;;;;;;;11.05;5.80;;;9.30;85.20;;;;;;4961658;28;20027;-52
2020/12/20 08:01:45;;;;;;;9.98;5.70;;;9.30;85.20;;;;;;4958398;28;20111;-52
2020/12/20 08:04:14;;;;;;;10.02;5.40;;;9.30;85.00;;;;;;4964945;28;20033;-52
2020/12/20 08:06:42;;;;;;;13.32;6.00;;;9.20;85.20;;;;;;4961375;28;20037;-52
2020/12/20 08:09:20;;;;;;;9.90;6.00;;;9.30;85.00;;;;;;4966220;28;20036;-52
2020/12/20 08:11:47;;;;;;;9.07;5.03;;;9.20;84.90;;;;;;4969321;28;20073;-52
2020/12/20 08:14:14;;;;;;;10.98;6.00;;;9.30;84.90;;;;;;4967423;28;20041;-52
2020/12/20 08:16:45;;;;;;;8.60;5.10;;;9.30;85.30;;;;;;4970197;28;20047;-52
2020/12/20 08:19:20;;;;;;;;;;;9.30;85.20;;;;;;4974371;28;20081;-52
2020/12/20 08:22:05;;;;;;;10.68;5.30;;;9.30;84.90;;;;;;4972076;28;20241;-52
2020/12/20 08:24:35;;;;;;;9.63;5.40;;;9.30;85.10;;;;;;4962730;28;20027;-52
2020/12/20 08:27:23;;;;;;;9.82;5.50;;;9.30;85.10;;;;;;4960976;28;20026;-52
2020/12/20 08:29:51;;;;;;;9.80;5.90;;;9.30;85.00;;;;;;4958059;28;20453;-52
2020/12/20 08:32:19;;;;;;;7.53;4.85;;;9.30;85.20;;;;;;4967900;28;20035;-52
2020/12/20 08:34:45;;;;;;;9.43;5.35;;;9.30;85.00;;;;;;4968187;28;20046;-53
2020/12/20 08:37:13;;;;;;;10.10;5.70;;;9.30;85.10;;;;;;4969851;28;20039;-52
2020/12/20 08:39:40;;;;;;;11.90;6.75;;;9.30;85.00;;;;;;4967674;28;20077;-53
2020/12/20 08:42:10;;;;;;;8.98;5.50;;;9.30;85.00;;;;;;4967805;28;20038;-52
2020/12/20 08:44:37;;;;;;;11.02;5.32;;;9.30;85.40;;;;;;4970974;28;20027;-52
2020/12/20 08:47:15;;;;;;;12.35;6.47;;;9.30;85.30;;;;;;4967486;28;20366;-52
2020/12/20 08:49:55;;;;;;;11.93;6.32;;;9.30;85.30;;;;;;4962925;28;20417;-52
2020/12/20 08:52:21;;;;;;;11.02;6.22;;;9.30;85.30;;;;;;4962836;28;20023;-52
2020/12/20 08:54:51;;;;;;;9.80;4.95;;;9.30;85.30;;;;;;4972033;28;20081;-52
2020/12/20 08:57:17;;;;;;;9.30;5.53;;;9.30;85.00;;;;;;4965159;28;20047;-52
2020/12/20 08:59:44;;;;;;;8.20;5.00;;;9.30;85.20;;;;;;4968679;28;20039;-52
2020/12/20 09:02:21;;;;;;;9.70;6.35;;;9.30;85.40;;;;;;4969972;28;20057;-52
2020/12/20 09:04:58;;;;;;;10.50;5.50;;;9.30;85.20;;;;;;4964270;28;20118;-53
2020/12/20 09:07:36;;;;;;;9.60;5.50;;;9.30;85.20;;;;;;4969109;28;20034;-52
2020/12/20 09:10:12;;;;;;;11.18;5.53;;;9.30;85.10;;;;;;4966903;28;20023;-52
2020/12/20 09:12:47;;;;;;;17.25;7.68;;;9.30;85.30;;;;;;4967328;28;20423;-53
2020/12/20 09:15:14;;;;;;;18.50;7.28;;;9.30;85.40;;;;;;4969289;28;20046;-52
2020/12/20 09:17:42;;;;;;;11.38;6.30;;;9.30;85.30;;;;;;4961037;28;20039;-52
2020/12/20 09:20:13;;;;;;;14.25;5.25;;;9.30;85.10;;;;;;4965924;28;20457;-52
2020/12/20 09:22:40;;;;;;;11.27;6.43;;;9.30;85.10;;;;;;4968079;28;20026;-52
2020/12/20 09:25:05;;;;;;;11.43;6.45;;;9.30;85.20;;;;;;4965759;28;20134;-53
2020/12/20 09:27:31;;;;;;;12.57;6.65;;;9.30;85.20;;;;;;4969956;28;20125;-52
2020/12/20 09:29:59;;;;;;;10.93;6.28;;;9.30;85.00;;;;;;4966045;28;20050;-52
2020/12/20 09:32:25;;;;;;;13.23;5.65;;;9.30;85.10;;;;;;4967392;28;20027;-52
2020/12/20 09:34:50;;;;;;;10.27;6.13;;;9.30;85.20;;;;;;4967977;28;20082;-53
2020/12/20 09:37:16;;;;;;;13.88;7.05;;;9.40;85.30;;;;;;4965683;28;20047;-52
2020/12/20 09:39:56;;;;;;;13.05;6.75;;;9.40;85.40;;;;;;4959490;28;20019;-52
2020/12/20 09:42:22;;;;;;;13.23;6.67;;;9.40;85.10;;;;;;4969706;28;20023;-52
2020/12/20 09:44:47;;;;;;;10.60;5.80;;;9.40;85.20;;;;;;4964168;28;20357;-52
2020/12/20 09:47:13;;;;;;;11.20;6.18;;;9.40;85.30;;;;;;4961113;28;20042;-52
2020/12/20 09:49:39;;;;;;;11.35;5.65;;;9.40;85.90;;;;;;4961935;28;20047;-53
2020/12/20 09:52:04;;;;;;;11.85;5.88;;;9.40;85.50;;;;;;4968048;28;20042;-53
2020/12/20 09:54:30;;;;;;;10.52;5.22;;;9.40;85.20;;;;;;4969171;28;20051;-52
2020/12/20 09:56:55;;;;;;;14.60;6.28;;;9.40;85.40;;;;;;4964834;28;20548;-52
2020/12/20 09:59:21;;;;;;;9.70;5.70;;;9.40;86.20;;;;;;4969204;28;20027;-52
2020/12/20 10:01:47;;;;;;;9.43;5.80;;;9.40;85.60;;;;;;4976285;28;20472;-52
2020/12/20 10:04:12;;;;;;;9.80;5.95;;;9.40;85.40;;;;;;4965607;28;20031;-52
2020/12/20 10:06:38;;;;;;;15.50;7.82;;;9.40;85.20;;;;;;4965264;28;20360;-52
2020/12/20 10:09:04;;;;;;;13.45;6.88;;;9.40;85.30;;;;;;4964125;28;20173;-53
2020/12/20 10:11:29;;;;;;;11.35;7.10;;;9.40;85.50;;;;;;4967898;28;20445;-52
2020/12/20 10:13:55;;;;;;;15.82;7.47;;;9.40;85.30;;;;;;4970926;28;20457;-53
2020/12/20 10:16:21;;;;;;;18.73;7.13;;;9.40;85.50;;;;;;4974365;28;20053;-52
2020/12/20 10:18:47;;;;;;;13.32;6.95;;;9.40;85.50;;;;;;4970977;28;20031;-53
2020/12/20 10:21:14;;;;;;;13.82;7.38;;;9.40;85.50;;;;;;4971505;28;20057;-52
2020/12/20 10:23:40;;;;;;;12.15;6.03;;;9.40;85.60;;;;;;4968367;28;20031;-52
2020/12/20 10:26:09;;;;;;;11.55;6.85;;;9.40;85.60;;;;;;4965900;28;20055;-52
2020/12/20 10:28:35;;;;;;;15.85;6.57;;;9.40;85.50;;;;;;4970924;28;20106;-52
2020/12/20 10:31:01;;;;;;;14.52;7.07;;;9.40;85.50;;;;;;4959882;28;20131;-53
2020/12/20 10:33:26;;;;;;;15.52;8.32;;;9.40;85.50;;;;;;4973417;28;20039;-52
2020/12/20 10:35:52;;;;;;;10.23;6.57;;;9.40;85.50;;;;;;4965567;28;20051;-53
2020/12/20 10:38:18;;;;;;;14.32;7.05;;;9.40;85.70;;;;;;4967938;28;20031;-52
2020/12/20 10:40:43;;;;;;;11.15;5.93;;;9.40;85.60;;;;;;4958609;28;20353;-52
2020/12/20 10:43:09;;;;;;;10.63;5.93;;;9.40;85.60;;;;;;4967720;28;20026;-52
2020/12/20 10:45:35;;;;;;;12.55;6.18;;;9.40;85.60;;;;;;4974731;28;20096;-52
2020/12/20 10:48:00;;;;;;;11.60;6.07;;;9.40;85.50;;;;;;4964297;28;20023;-52
2020/12/20 10:50:26;;;;;;;15.45;8.30;;;9.40;85.90;;;;;;4968357;28;20437;-52
2020/12/20 10:52:51;;;;;;;17.55;7.53;;;9.40;85.80;;;;;;4963501;28;20038;-52
2020/12/20 10:55:17;;;;;;;15.57;7.38;;;9.40;85.60;;;;;;4965264;28;20453;-52
2020/12/20 10:57:43;;;;;;;14.48;6.50;;;9.40;85.90;;;;;;4965273;28;20090;-52
2020/12/20 11:00:08;;;;;;;13.93;6.95;;;9.40;86.10;;;;;;4963945;28;20024;-52
2020/12/20 11:02:34;;;;;;;12.60;6.72;;;9.40;85.90;;;;;;4963652;28;20035;-52
2020/12/20 11:05:00;;;;;;;12.18;6.45;;;9.40;86.00;;;;;;4956357;28;20469;-52
2020/12/20 11:07:25;;;;;;;13.30;6.40;;;9.50;86.20;;;;;;4957744;28;20019;-52
2020/12/20 11:09:51;;;;;;;15.45;6.80;;;9.40;85.80;;;;;;4967831;28;20034;-52
2020/12/20 11:12:17;;;;;;;13.05;7.00;;;9.40;85.80;;;;;;4962744;28;20045;-52
2020/12/20 11:14:43;;;;;;;11.38;6.68;;;9.40;86.00;;;;;;4970998;28;20033;-52
2020/12/20 11:17:08;;;;;;;14.70;7.03;;;9.40;85.90;;;;;;4959946;28;20094;-52
2020/12/20 11:19:34;;;;;;;12.85;6.60;;;9.50;86.40;;;;;;4969820;28;20031;-52
2020/12/20 11:22:00;;;;;;;12.23;6.32;;;9.40;86.10;;;;;;4956773;28;20031;-52
2020/12/20 11:24:26;;;;;;;13.23;6.68;;;9.40;86.20;;;;;;4961098;28;20465;-52
2020/12/20 11:26:53;;;;;;;9.25;5.32;;;9.40;86.20;;;;;;4967871;28;20461;-53
2020/12/20 11:29:19;;;;;;;17.30;7.55;;;9.50;86.20;;;;;;4969394;28;20031;-52
2020/12/20 11:31:49;;;;;;;11.68;6.15;;;9.40;85.80;;;;;;4965125;28;20054;-52
2020/12/20 11:34:16;;;;;;;11.32;6.07;;;9.40;85.70;;;;;;4957042;28;20030;-53
2020/12/20 11:36:42;;;;;;;12.95;6.47;;;9.40;86.00;;;;;;4963523;28;20065;-52
2020/12/20 11:39:12;;;;;;;12.35;6.90;;;9.40;85.70;;;;;;4962662;28;20031;-52
2020/12/20 11:41:38;;;;;;;15.57;7.70;;;9.50;86.30;;;;;;4956335;28;20038;-52
2020/12/20 11:44:05;;;;;;;19.73;7.68;;;9.40;85.90;;;;;;4969685;28;20270;-52
2020/12/20 11:46:31;;;;;;;12.40;7.07;;;9.40;85.90;;;;;;4965332;28;20038;-52
2020/12/20 11:48:57;;;;;;;20.33;9.10;;;9.40;86.00;;;;;;4970263;28;20372;-53
2020/12/20 11:51:26;;;;;;;14.93;8.65;;;9.50;85.90;;;;;;4968128;28;20496;-53
2020/12/20 11:53:55;;;;;;;21.55;9.98;;;9.50;85.90;;;;;;4962817;28;20357;-53
2020/12/20 11:56:21;;;;;;;30.15;12.80;;;9.50;86.20;;;;;;4961122;28;20078;-53
2020/12/20 11:58:48;;;;;;;30.73;13.10;;;9.50;86.40;;;;;;4958785;28;20054;-52
2020/12/20 12:01:20;;;;;;;31.60;12.80;;;9.50;86.30;;;;;;4953449;28;20035;-52
2020/12/20 12:03:46;;;;;;;35.83;12.43;;;9.50;86.30;;;;;;4956968;28;20077;-53
2020/12/20 12:06:11;;;;;;;28.60;13.10;;;9.50;86.00;;;;;;4963751;28;20118;-53
2020/12/20 12:08:37;;;;;;;25.30;9.82;;;9.50;86.30;;;;;;4964537;28;20039;-52
2020/12/20 12:11:04;;;;;;;18.58;9.15;;;9.50;86.40;;;;;;4955915;28;20024;-52
2020/12/20 12:13:31;;;;;;;25.67;11.00;;;9.50;86.00;;;;;;4955346;28;20178;-52
2020/12/20 12:15:56;;;;;;;22.42;10.73;;;9.50;86.20;;;;;;4953851;28;20080;-52
2020/12/20 12:18:22;;;;;;;29.23;13.43;;;9.50;86.30;;;;;;4966888;28;20040;-52
2020/12/20 12:20:48;;;;;;;27.10;12.02;;;9.50;86.10;;;;;;4973608;28;20166;-52
2020/12/20 12:23:13;;;;;;;22.75;10.18;;;9.50;86.20;;;;;;4959597;28;20032;-52
2020/12/20 12:25:39;;;;;;;16.73;9.23;;;9.50;86.10;;;;;;4970853;28;20369;-52
2020/12/20 12:28:04;;;;;;;20.80;9.35;;;9.50;86.20;;;;;;4967055;28;20034;-52
2020/12/20 12:30:30;;;;;;;23.17;10.52;;;9.50;86.50;;;;;;4963323;28;20453;-52
2020/12/20 12:32:56;;;;;;;17.45;9.13;;;9.50;86.10;;;;;;4961433;28;20023;-52
2020/12/20 12:35:22;;;;;;;20.65;10.13;;;9.50;86.50;;;;;;4958377;28;20031;-53
2020/12/20 12:37:50;;;;;;;20.08;10.25;;;9.50;86.30;;;;;;4960513;28;20417;-52
2020/12/20 12:40:18;;;;;;;14.60;8.10;;;9.50;86.50;;;;;;4962159;28;20035;-52
2020/12/20 12:42:43;;;;;;;19.35;9.25;;;9.50;86.30;;;;;;4956312;28;20531;-52
2020/12/20 12:45:12;;;;;;;17.30;9.30;;;9.50;86.30;;;;;;4963292;28;20050;-52
2020/12/20 12:47:38;;;;;;;22.48;10.13;;;9.50;86.30;;;;;;4959468;28;20063;-52
2020/12/20 12:50:04;;;;;;;19.27;9.65;;;9.50;86.00;;;;;;4972166;28;20111;-52